Hobart, Oklahoma
Current Conditions -  °F | °C
As of 11:53 AM on Monday 24 Nov 2014 (Local Time) from KHBR Reporting Station
Clear Clear  
Wind Chill: 13°   Ceiling: Unl
Heat Index: 13°   Visibility: 10mi
Dew Point: -3°   Wind: 12mph
Humidity: 34%   Direction: 310°NW
Pressure: 30.04"   Gusts: NA
Location:  35.03°N, 99.09°W
Report Text: KHBR 241753Z AUTO 31010KT 10SM CLR 13/M03 A3004 RMK AO2 SLP172 T01281028 10128 21006 50000
Loading
Personal Weather Stations






























Interactive Weather Map New forecast layout! Learn more

10-Day Weather Forecast

Advertisements
Track Severe Weather on mobile